Sac River (Missouri), Caplinger Mills (06919900)

StateMissouriCurrentLow (515 cfs)
RiverSac RiverFlood - The river is flooding. Obstacles can be treacherous or deadly. The river should be avoided at this stage for casual trips and definitely for the inexperienced. Trips should be attempted only with protective gear and equipment.Flood(none)
Updated2019-10-14 3:45 (22 minutes ago)High - The river is high and potentially dangerous, especially for the young and / or inexperienced. Normal stream obstacles are sometimes difficult to navigate. Extended distances can be attempted, but canoe travel may not be advisable.High(none)
Discharge515 cfs (median: 129 cfs)Good - Conditions are ideal for a canoe or kayak. Boats typically will drag on fewer than one-quarter of riffles, if at all, and portages are unnecessary or rare. Normal float lengths can be attempted without a problem.Good(none)
Height6.64 feetLow - River is low but can still be floated. Some riffles are okay but most come with significant dragging and might need a portage. Float lengths should be reduced to accommodate low flow, dragging, and portages.Low60
TrendFalling (falling over 24 hours)Poor - River is too low to float comfortably. Most or all riffles will drag or must be portaged and some obstacles (such as slick shelf rock) cause undue problems. Avoid the river at this stage for casual paddling trips.Poor(none)
USGSExternal icon USGS Site for Caplinger Mills (06919900)LocationExternal icon Google Maps

Trending Data

Plot Image
ObservationHeightDischargeMaximum
Discharge
Minimum
Discharge
Mean
Discharge
P05P10P20P25P50
(Median)
P75P80P90P95
2019-10-14 03:45 6.64 515 9690 (1987) 53 (1977) 896 55 60 71 73 129 948 1070 2610 5150
2019-10-14 02:45 6.66 524 9690 (1987) 53 (1977) 896 55 60 71 73 129 948 1070 2610 5150
2019-10-14 01:45 6.68 532 9690 (1987) 53 (1977) 896 55 60 71 73 129 948 1070 2610 5150
2019-10-14 00:45 6.71 546 9690 (1987) 53 (1977) 896 55 60 71 73 129 948 1070 2610 5150
2019-10-13 23:45 6.73 555 9980 (1987) 46 (1981) 793 55 58 66 72 140 662 935 2090 4660
2019-10-13 22:45 6.75 563 9980 (1987) 46 (1981) 793 55 58 66 72 140 662 935 2090 4660
2019-10-13 21:45 6.78 577 9980 (1987) 46 (1981) 793 55 58 66 72 140 662 935 2090 4660
2019-10-13 20:45 6.81 591 9980 (1987) 46 (1981) 793 55 58 66 72 140 662 935 2090 4660
2019-10-13 19:45 6.85 609 9980 (1987) 46 (1981) 793 55 58 66 72 140 662 935 2090 4660
2019-10-13 18:45 6.87 618 9980 (1987) 46 (1981) 793 55 58 66 72 140 662 935 2090 4660
2019-10-13 17:45 6.89 628 9980 (1987) 46 (1981) 793 55 58 66 72 140 662 935 2090 4660
2019-10-13 16:45 6.91 637 9980 (1987) 46 (1981) 793 55 58 66 72 140 662 935 2090 4660
2019-10-13 15:45 6.92 642 9980 (1987) 46 (1981) 793 55 58 66 72 140 662 935 2090 4660
2019-10-13 14:45 6.93 647 9980 (1987) 46 (1981) 793 55 58 66 72 140 662 935 2090 4660
2019-10-13 13:45 6.94 651 9980 (1987) 46 (1981) 793 55 58 66 72 140 662 935 2090 4660
2019-10-13 12:45 6.96 661 9980 (1987) 46 (1981) 793 55 58 66 72 140 662 935 2090 4660
2019-10-13 11:45 6.97 666 9980 (1987) 46 (1981) 793 55 58 66 72 140 662 935 2090 4660
2019-10-13 10:45 6.99 675 9980 (1987) 46 (1981) 793 55 58 66 72 140 662 935 2090 4660
2019-10-13 09:45 7.02 690 9980 (1987) 46 (1981) 793 55 58 66 72 140 662 935 2090 4660
2019-10-13 08:45 7.04 700 9980 (1987) 46 (1981) 793 55 58 66 72 140 662 935 2090 4660
2019-10-13 07:45 7.07 715 9980 (1987) 46 (1981) 793 55 58 66 72 140 662 935 2090 4660
2019-10-13 06:45 7.10 730 9980 (1987) 46 (1981) 793 55 58 66 72 140 662 935 2090 4660
2019-10-13 05:45 7.13 745 9980 (1987) 46 (1981) 793 55 58 66 72 140 662 935 2090 4660
2019-10-13 04:45 7.16 760 9980 (1987) 46 (1981) 793 55 58 66 72 140 662 935 2090 4660
2019-10-13 03:45 7.19 775 9980 (1987) 46 (1981) 793 55 58 66 72 140 662 935 2090 4660
2019-10-13 02:45 7.23 796 9980 (1987) 46 (1981) 793 55 58 66 72 140 662 935 2090 4660
2019-10-13 01:45 7.27 817 9980 (1987) 46 (1981) 793 55 58 66 72 140 662 935 2090 4660
2019-10-13 00:45 7.31 838 9980 (1987) 46 (1981) 793 55 58 66 72 140 662 935 2090 4660
2019-10-12 23:45 7.35 859 10200 (1987) 45 (1981) 854 57 59 67 74 130 934 1120 2100 4640
2019-10-12 22:45 7.39 881 10200 (1987) 45 (1981) 854 57 59 67 74 130 934 1120 2100 4640
2019-10-12 21:45 7.43 903 10200 (1987) 45 (1981) 854 57 59 67 74 130 934 1120 2100 4640
2019-10-12 20:45 7.48 930 10200 (1987) 45 (1981) 854 57 59 67 74 130 934 1120 2100 4640
2019-10-12 19:45 7.53 958 10200 (1987) 45 (1981) 854 57 59 67 74 130 934 1120 2100 4640
2019-10-12 18:45 7.57 981 10200 (1987) 45 (1981) 854 57 59 67 74 130 934 1120 2100 4640
2019-10-12 17:45 7.61 1000 10200 (1987) 45 (1981) 854 57 59 67 74 130 934 1120 2100 4640
2019-10-12 16:45 7.65 1030 10200 (1987) 45 (1981) 854 57 59 67 74 130 934 1120 2100 4640
2019-10-12 15:45 7.67 1040 10200 (1987) 45 (1981) 854 57 59 67 74 130 934 1120 2100 4640
2019-10-12 14:45 7.70 1060 10200 (1987) 45 (1981) 854 57 59 67 74 130 934 1120 2100 4640
2019-10-12 13:45 7.72 1070 10200 (1987) 45 (1981) 854 57 59 67 74 130 934 1120 2100 4640
2019-10-12 12:45 7.75 1090 10200 (1987) 45 (1981) 854 57 59 67 74 130 934 1120 2100 4640
2019-10-12 11:45 7.78 1100 10200 (1987) 45 (1981) 854 57 59 67 74 130 934 1120 2100 4640
2019-10-12 10:45 7.81 1120 10200 (1987) 45 (1981) 854 57 59 67 74 130 934 1120 2100 4640
2019-10-12 09:45 7.84 1140 10200 (1987) 45 (1981) 854 57 59 67 74 130 934 1120 2100 4640
2019-10-12 08:45 7.88 1160 10200 (1987) 45 (1981) 854 57 59 67 74 130 934 1120 2100 4640
2019-10-12 07:45 7.92 1190 10200 (1987) 45 (1981) 854 57 59 67 74 130 934 1120 2100 4640
2019-10-12 06:45 7.96 1210 10200 (1987) 45 (1981) 854 57 59 67 74 130 934 1120 2100 4640
2019-10-12 05:45 7.99 1230 10200 (1987) 45 (1981) 854 57 59 67 74 130 934 1120 2100 4640
2019-10-12 04:45 8.02 1250 10200 (1987) 45 (1981) 854 57 59 67 74 130 934 1120 2100 4640
2019-10-12 03:45 8.05 1270 10200 (1987) 45 (1981) 854 57 59 67 74 130 934 1120 2100 4640
2019-10-12 02:45 8.06 1280 10200 (1987) 45 (1981) 854 57 59 67 74 130 934 1120 2100 4640
2019-10-12 01:45 8.06 1280 10200 (1987) 45 (1981) 854 57 59 67 74 130 934 1120 2100 4640
2019-10-12 00:45 8.07 1280 10200 (1987) 45 (1981) 854 57 59 67 74 130 934 1120 2100 4640
2019-10-11 23:45 8.07 1280 10300 (1987) 44 (1981) 1100 57 61 70 85 130 1490 2000 2590 6410
2019-10-11 22:45 8.07 1280 10300 (1987) 44 (1981) 1100 57 61 70 85 130 1490 2000 2590 6410
2019-10-11 21:45 8.09 1300 10300 (1987) 44 (1981) 1100 57 61 70 85 130 1490 2000 2590 6410
2019-10-11 20:45 8.11 1310 10300 (1987) 44 (1981) 1100 57 61 70 85 130 1490 2000 2590 6410
2019-10-11 19:45 8.14 1330 10300 (1987) 44 (1981) 1100 57 61 70 85 130 1490 2000 2590 6410
2019-10-11 18:45 8.15 1330 10300 (1987) 44 (1981) 1100 57 61 70 85 130 1490 2000 2590 6410
2019-10-11 17:45 8.16 1340 10300 (1987) 44 (1981) 1100 57 61 70 85 130 1490 2000 2590 6410
2019-10-11 16:45 8.14 1330 10300 (1987) 44 (1981) 1100 57 61 70 85 130 1490 2000 2590 6410
2019-10-11 15:45 8.10 1300 10300 (1987) 44 (1981) 1100 57 61 70 85 130 1490 2000 2590 6410
2019-10-11 14:45 8.05 1270 10300 (1987) 44 (1981) 1100 57 61 70 85 130 1490 2000 2590 6410
2019-10-11 13:45 7.97 1220 10300 (1987) 44 (1981) 1100 57 61 70 85 130 1490 2000 2590 6410
2019-10-11 12:45 7.88 1160 10300 (1987) 44 (1981) 1100 57 61 70 85 130 1490 2000 2590 6410
2019-10-11 11:45 7.78 1100 10300 (1987) 44 (1981) 1100 57 61 70 85 130 1490 2000 2590 6410
2019-10-11 10:45 7.70 1060 10300 (1987) 44 (1981) 1100 57 61 70 85 130 1490 2000 2590 6410
2019-10-11 09:45 7.63 1020 10300 (1987) 44 (1981) 1100 57 61 70 85 130 1490 2000 2590 6410
2019-10-11 08:45 7.59 992 10300 (1987) 44 (1981) 1100 57 61 70 85 130 1490 2000 2590 6410
2019-10-11 07:45 7.55 970 10300 (1987) 44 (1981) 1100 57 61 70 85 130 1490 2000 2590 6410
2019-10-11 06:45 7.52 953 10300 (1987) 44 (1981) 1100 57 61 70 85 130 1490 2000 2590 6410
2019-10-11 05:45 7.50 942 10300 (1987) 44 (1981) 1100 57 61 70 85 130 1490 2000 2590 6410
2019-10-11 04:45 7.50 942 10300 (1987) 44 (1981) 1100 57 61 70 85 130 1490 2000 2590 6410
2019-10-11 03:45 7.51 947 10300 (1987) 44 (1981) 1100 57 61 70 85 130 1490 2000 2590 6410
2019-10-11 02:45 7.51 947 10300 (1987) 44 (1981) 1100 57 61 70 85 130 1490 2000 2590 6410
2019-10-11 01:45 7.53 958 10300 (1987) 44 (1981) 1100 57 61 70 85 130 1490 2000 2590 6410
2019-10-11 00:45 7.52 953 10300 (1987) 44 (1981) 1100 57 61 70 85 130 1490 2000 2590 6410
2019-10-10 23:45 7.46 919 18800 (2010) 49 (1981) 1310 57 62 74 86 138 1180 1730 2300 9070
2019-10-10 22:45 7.35 859 18800 (2010) 49 (1981) 1310 57 62 74 86 138 1180 1730 2300 9070
2019-10-10 21:45 7.17 765 18800 (2010) 49 (1981) 1310 57 62 74 86 138 1180 1730 2300 9070
2019-10-10 20:45 7.01 685 18800 (2010) 49 (1981) 1310 57 62 74 86 138 1180 1730 2300 9070
2019-10-10 19:45 6.83 600 18800 (2010) 49 (1981) 1310 57 62 74 86 138 1180 1730 2300 9070
2019-10-10 18:45 6.62 507 18800 (2010) 49 (1981) 1310 57 62 74 86 138 1180 1730 2300 9070
2019-10-10 17:45 6.42 424 18800 (2010) 49 (1981) 1310 57 62 74 86 138 1180 1730 2300 9070
2019-10-10 16:45 6.25 362 18800 (2010) 49 (1981) 1310 57 62 74 86 138 1180 1730 2300 9070
2019-10-10 15:45 6.08 305 18800 (2010) 49 (1981) 1310 57 62 74 86 138 1180 1730 2300 9070
2019-10-10 14:45 6.00 280 18800 (2010) 49 (1981) 1310 57 62 74 86 138 1180 1730 2300 9070
2019-10-10 13:45 5.95 264 18800 (2010) 49 (1981) 1310 57 62 74 86 138 1180 1730 2300 9070
2019-10-10 12:45 5.87 240 18800 (2010) 49 (1981) 1310 57 62 74 86 138 1180 1730 2300 9070
2019-10-10 11:45 5.75 207 18800 (2010) 49 (1981) 1310 57 62 74 86 138 1180 1730 2300 9070
2019-10-10 10:45 5.70 193 18800 (2010) 49 (1981) 1310 57 62 74 86 138 1180 1730 2300 9070
2019-10-10 09:45 5.70 193 18800 (2010) 49 (1981) 1310 57 62 74 86 138 1180 1730 2300 9070
2019-10-10 08:45 5.68 188 18800 (2010) 49 (1981) 1310 57 62 74 86 138 1180 1730 2300 9070
2019-10-10 07:45 5.67 185 18800 (2010) 49 (1981) 1310 57 62 74 86 138 1180 1730 2300 9070
2019-10-10 06:45 5.67 185 18800 (2010) 49 (1981) 1310 57 62 74 86 138 1180 1730 2300 9070
2019-10-10 05:45 5.67 185 18800 (2010) 49 (1981) 1310 57 62 74 86 138 1180 1730 2300 9070
2019-10-10 04:45 5.68 188 18800 (2010) 49 (1981) 1310 57 62 74 86 138 1180 1730 2300 9070
2019-10-10 03:45 5.68 188 18800 (2010) 49 (1981) 1310 57 62 74 86 138 1180 1730 2300 9070
2019-10-10 02:45 5.68 188 18800 (2010) 49 (1981) 1310 57 62 74 86 138 1180 1730 2300 9070
2019-10-10 01:45 5.69 190 18800 (2010) 49 (1981) 1310 57 62 74 86 138 1180 1730 2300 9070
2019-10-10 00:45 5.70 193 18800 (2010) 49 (1981) 1310 57 62 74 86 138 1180 1730 2300 9070
2019-10-09 23:45 5.70 193 19800 (2010) 49 (1981) 1290 58 62 70 84 163 1170 1480 2580 9050
2019-10-09 22:45 5.71 196 19800 (2010) 49 (1981) 1290 58 62 70 84 163 1170 1480 2580 9050
2019-10-09 21:45 5.72 198 19800 (2010) 49 (1981) 1290 58 62 70 84 163 1170 1480 2580 9050
2019-10-09 20:45 5.73 201 19800 (2010) 49 (1981) 1290 58 62 70 84 163 1170 1480 2580 9050
2019-10-09 19:45 5.74 204 19800 (2010) 49 (1981) 1290 58 62 70 84 163 1170 1480 2580 9050
2019-10-09 18:45 5.74 204 19800 (2010) 49 (1981) 1290 58 62 70 84 163 1170 1480 2580 9050
2019-10-09 17:45 5.75 207 19800 (2010) 49 (1981) 1290 58 62 70 84 163 1170 1480 2580 9050
2019-10-09 16:45 5.76 209 19800 (2010) 49 (1981) 1290 58 62 70 84 163 1170 1480 2580 9050
2019-10-09 15:45 5.77 212 19800 (2010) 49 (1981) 1290 58 62 70 84 163 1170 1480 2580 9050
2019-10-09 14:45 5.77 212 19800 (2010) 49 (1981) 1290 58 62 70 84 163 1170 1480 2580 9050
2019-10-09 13:45 5.78 215 19800 (2010) 49 (1981) 1290 58 62 70 84 163 1170 1480 2580 9050
2019-10-09 12:45 5.78 215 19800 (2010) 49 (1981) 1290 58 62 70 84 163 1170 1480 2580 9050
2019-10-09 11:45 5.79 218 19800 (2010) 49 (1981) 1290 58 62 70 84 163 1170 1480 2580 9050
2019-10-09 10:45 5.79 218 19800 (2010) 49 (1981) 1290 58 62 70 84 163 1170 1480 2580 9050
2019-10-09 09:45 5.80 220 19800 (2010) 49 (1981) 1290 58 62 70 84 163 1170 1480 2580 9050
2019-10-09 08:45 5.81 223 19800 (2010) 49 (1981) 1290 58 62 70 84 163 1170 1480 2580 9050
2019-10-09 07:45 5.82 226 19800 (2010) 49 (1981) 1290 58 62 70 84 163 1170 1480 2580 9050
2019-10-09 06:45 5.83 229 19800 (2010) 49 (1981) 1290 58 62 70 84 163 1170 1480 2580 9050
2019-10-09 05:45 5.84 232 19800 (2010) 49 (1981) 1290 58 62 70 84 163 1170 1480 2580 9050
2019-10-09 04:45 5.85 235 19800 (2010) 49 (1981) 1290 58 62 70 84 163 1170 1480 2580 9050
2019-10-09 03:45 5.87 240 19800 (2010) 49 (1981) 1290 58 62 70 84 163 1170 1480 2580 9050
2019-10-09 02:45 5.87 240 19800 (2010) 49 (1981) 1290 58 62 70 84 163 1170 1480 2580 9050
2019-10-09 01:45 5.89 246 19800 (2010) 49 (1981) 1290 58 62 70 84 163 1170 1480 2580 9050
2019-10-09 00:45 5.90 249 19800 (2010) 49 (1981) 1290 58 62 70 84 163 1170 1480 2580 9050
2019-10-08 23:45 5.91 252 10100 (1987) 48 (1981) 1180 58 61 73 85 189 1680 1820 3870 6480
2019-10-08 22:45 5.92 255 10100 (1987) 48 (1981) 1180 58 61 73 85 189 1680 1820 3870 6480
2019-10-08 21:45 5.93 258 10100 (1987) 48 (1981) 1180 58 61 73 85 189 1680 1820 3870 6480
2019-10-08 20:45 5.95 264 10100 (1987) 48 (1981) 1180 58 61 73 85 189 1680 1820 3870 6480
2019-10-08 19:45 5.96 267 10100 (1987) 48 (1981) 1180 58 61 73 85 189 1680 1820 3870 6480
2019-10-08 18:45 5.97 270 10100 (1987) 48 (1981) 1180 58 61 73 85 189 1680 1820 3870 6480
2019-10-08 17:45 5.97 270 10100 (1987) 48 (1981) 1180 58 61 73 85 189 1680 1820 3870 6480
2019-10-08 16:45 5.98 274 10100 (1987) 48 (1981) 1180 58 61 73 85 189 1680 1820 3870 6480
2019-10-08 15:45 5.97 270 10100 (1987) 48 (1981) 1180 58 61 73 85 189 1680 1820 3870 6480
2019-10-08 14:45 5.96 267 10100 (1987) 48 (1981) 1180 58 61 73 85 189 1680 1820 3870 6480
2019-10-08 13:45 6.15 328 10100 (1987) 48 (1981) 1180 58 61 73 85 189 1680 1820 3870 6480
2019-10-08 12:45 6.15 328 10100 (1987) 48 (1981) 1180 58 61 73 85 189 1680 1820 3870 6480
2019-10-08 11:45 6.15 328 10100 (1987) 48 (1981) 1180 58 61 73 85 189 1680 1820 3870 6480
2019-10-08 10:45 6.14 325 10100 (1987) 48 (1981) 1180 58 61 73 85 189 1680 1820 3870 6480
2019-10-08 09:45 6.15 328 10100 (1987) 48 (1981) 1180 58 61 73 85 189 1680 1820 3870 6480
2019-10-08 08:45 6.15 328 10100 (1987) 48 (1981) 1180 58 61 73 85 189 1680 1820 3870 6480
2019-10-08 07:45 6.16 332 10100 (1987) 48 (1981) 1180 58 61 73 85 189 1680 1820 3870 6480
2019-10-08 06:45 6.16 332 10100 (1987) 48 (1981) 1180 58 61 73 85 189 1680 1820 3870 6480
2019-10-08 05:45 6.17 335 10100 (1987) 48 (1981) 1180 58 61 73 85 189 1680 1820 3870 6480
2019-10-08 04:45 6.19 342 10100 (1987) 48 (1981) 1180 58 61 73 85 189 1680 1820 3870 6480
2019-10-08 03:45 6.20 345 10100 (1987) 48 (1981) 1180 58 61 73 85 189 1680 1820 3870 6480
2019-10-08 02:45 6.22 352 10100 (1987) 48 (1981) 1180 58 61 73 85 189 1680 1820 3870 6480
2019-10-08 01:45 6.23 355 10100 (1987) 48 (1981) 1180 58 61 73 85 189 1680 1820 3870 6480
2019-10-08 00:45 6.25 362 10100 (1987) 48 (1981) 1180 58 61 73 85 189 1680 1820 3870 6480
2019-10-07 23:45 6.27 369 17400 (1999) 48 (1981) 1320 58 65 73 93 165 1220 1900 2900 8530
2019-10-07 22:45 6.29 376 17400 (1999) 48 (1981) 1320 58 65 73 93 165 1220 1900 2900 8530
2019-10-07 21:45 6.31 384 17400 (1999) 48 (1981) 1320 58 65 73 93 165 1220 1900 2900 8530
2019-10-07 20:45 6.33 391 17400 (1999) 48 (1981) 1320 58 65 73 93 165 1220 1900 2900 8530
2019-10-07 19:45 6.35 398 17400 (1999) 48 (1981) 1320 58 65 73 93 165 1220 1900 2900 8530
2019-10-07 18:45 6.36 402 17400 (1999) 48 (1981) 1320 58 65 73 93 165 1220 1900 2900 8530
2019-10-07 17:45 6.35 398 17400 (1999) 48 (1981) 1320 58 65 73 93 165 1220 1900 2900 8530
2019-10-07 16:45 6.33 391 17400 (1999) 48 (1981) 1320 58 65 73 93 165 1220 1900 2900 8530
2019-10-07 15:45 6.29 376 17400 (1999) 48 (1981) 1320 58 65 73 93 165 1220 1900 2900 8530
2019-10-07 14:45 6.22 352 17400 (1999) 48 (1981) 1320 58 65 73 93 165 1220 1900 2900 8530
2019-10-07 13:45 6.13 322 17400 (1999) 48 (1981) 1320 58 65 73 93 165 1220 1900 2900 8530
2019-10-07 12:45 6.02 286 17400 (1999) 48 (1981) 1320 58 65 73 93 165 1220 1900 2900 8530
2019-10-07 11:45 5.91 252 17400 (1999) 48 (1981) 1320 58 65 73 93 165 1220 1900 2900 8530
2019-10-07 10:45 5.84 232 17400 (1999) 48 (1981) 1320 58 65 73 93 165 1220 1900 2900 8530
2019-10-07 09:45 5.82 226 17400 (1999) 48 (1981) 1320 58 65 73 93 165 1220 1900 2900 8530
2019-10-07 08:45 5.81 223 17400 (1999) 48 (1981) 1320 58 65 73 93 165 1220 1900 2900 8530
2019-10-07 07:45 5.82 226 17400 (1999) 48 (1981) 1320 58 65 73 93 165 1220 1900 2900 8530
2019-10-07 06:45 5.82 226 17400 (1999) 48 (1981) 1320 58 65 73 93 165 1220 1900 2900 8530
2019-10-07 05:45 5.82 226 17400 (1999) 48 (1981) 1320 58 65 73 93 165 1220 1900 2900 8530
2019-10-07 04:45 5.83 229 17400 (1999) 48 (1981) 1320 58 65 73 93 165 1220 1900 2900 8530
2019-10-07 03:45 5.83 229 17400 (1999) 48 (1981) 1320 58 65 73 93 165 1220 1900 2900 8530
2019-10-07 02:45 5.83 229 17400 (1999) 48 (1981) 1320 58 65 73 93 165 1220 1900 2900 8530
2019-10-07 01:45 5.84 232 17400 (1999) 48 (1981) 1320 58 65 73 93 165 1220 1900 2900 8530
2019-10-07 00:45 5.84 232 17400 (1999) 48 (1981) 1320 58 65 73 93 165 1220 1900 2900 8530

A total of 172 rows are displayed for years 1975 through 2018.

Trips for Sac River (Missouri), Caplinger Mills (06919900)

DateStartEndDistanceConditionDischargeHeightFishingDetails
Click for details2014-08-17 Caplinger Mills Rt N Total trip distance: 0.7 miles0.7 Low 45 4.76 Poor NoneNone Bowe, Michelle
Edmond, Brian
Edmond, Julian
Bowe, Michelle; Edmond, Brian; Edmond, Julian
Water level and flow was very low. However, much of the distance was a pool or had sufficient flow to carry the canoe. The boat ramp at Caplinger Mills was primitive and difficult to use with just a 2WD van.Water level and flow was very low. However, much of the distance was a pool or had sufficient flow to carry the canoe. The boat ramp at Caplinger Mills was primitive and difficult to use with just a 2WD van. USGS Gauge Data:
Caplinger Mills (06919900)
Discharge: 45
Height: 4.76
<b>USGS Gauge Data:</b></br />Caplinger Mills (06919900)<br />Discharge: 45<br />Height: 4.76
Source: EdmondSource: Edmond

A total of 1 rows are displayed.

Trip Summary for Sac River (Missouri), Caplinger Mills (06919900)

Miles0.7
Trips1
People3
Dates1
Years1
Months1
Rows1
Sources1

Condition Descriptions

Fishing Conditions

Fish Species

Notes

Classic Trip List

The classic River Trips application is still available for use. It is updated with the new system using a data retrofit. It is no longer maintained. The original River Trips application is no longer updated (as of 1 Dec 2016) but can be checked for errors or for the condition of the data before it was converted to the new system.